Kezdőlap
METAR-TAF:

METAR-TAF

Repülőterek :

Enfidha-Hammamet

Hammamet, Tunézia

földrajzi szélesség: 36-04-34N, földrajzi hosszúság: 10-26-19E, magasság: 6 m

Jelenlegi meteorológiai megfigyelések

A jelentés 44 perccel ezelõtt készült, 02:30 UTC
Nyugat-délnyugati szél 5 kt
Hőmérséklet 4°C
Páratartalom 93%
Légköri nyomás 1006 hPa
Látótávolság 10 km, vagy több
felhőtlen 1500 m magasságban, és nincs gomolyfelhõ

METAR: DTNH 230230Z 24005KT CAVOK 04/03 Q1006

Idő: 04:14 (03:14 UTC)

Előrejelzés

A jelentés 4 órával és 14 perccel ezelõtt készült, 23:00 UTC
Az előrejelzés 23-én 00 óra UTC és 23-én 24 óra UTC között érvényes
Nyugat-délnyugati szél 10 kt
Látótávolság 10 km, vagy több
Szórványos felhőzet 2600 lábon
23-én 12 óra UTC és 23-én 24 óra UTC között ideiglenes
Nyugati szél 20 kt

TAF: DTNH 222300Z 2300/2324 25010KT 9999 SCT026 TEMPO 2312/2324 26020KT

Meteorológiai megfigyelések és előrejelzések több, mint 4000 repülőtéren (METAR és TAF jelentéseket).

A térképen piros és sárga pontok jelzik az elérhető meteorológiai állomásokat.

Mozgassa az egeret a pont fölött, hogy megjelenjen az állomás neve.

Azután kattintson az időjárási megfigyelések és előrejelzések megtekintéséhez.

A térkép megváltoztatása: kattintson a fekete keresztel jelölt zöld gombra ráközelítéshez, a vonallal jelölt zöld gombra távolításhoz, vagy a zöld nyilakra a szomszédos térképek eléréséhez.


METAR-TAF: